createdAt,value
2018-12-08T00:00:00.932Z,68.50
2018-12-08T00:02:33.772Z,68.70
2018-12-08T00:05:06.202Z,67.40
2018-12-08T00:07:38.924Z,67.30
2018-12-08T00:10:12.163Z,68.00
2018-12-08T00:12:45.092Z,67.40
2018-12-08T00:15:17.202Z,68.00
2018-12-08T00:17:50.272Z,67.40
2018-12-08T00:20:22.991Z,66.80
2018-12-08T00:22:55.301Z,67.50
2018-12-08T00:25:27.834Z,66.30
2018-12-08T00:28:00.515Z,66.50
2018-12-08T00:30:42.141Z,67.50
2018-12-08T00:33:14.411Z,67.10
2018-12-08T00:35:46.621Z,65.40
2018-12-08T00:38:19.801Z,64.60
2018-12-08T00:40:52.401Z,64.90
2018-12-08T00:43:24.572Z,65.30
2018-12-08T00:45:56.712Z,65.00
2018-12-08T00:48:28.783Z,64.70
2018-12-08T00:51:01.632Z,66.90
2018-12-08T00:53:34.221Z,65.20
2018-12-08T00:56:06.541Z,65.10
2018-12-08T00:58:39.611Z,64.20
2018-12-08T01:01:12.032Z,63.10
2018-12-08T01:03:44.841Z,62.50
2018-12-08T01:06:17.091Z,62.70
2018-12-08T01:08:50.372Z,62.90
2018-12-08T01:11:22.985Z,63.90
2018-12-08T01:13:56.691Z,61.40
2018-12-08T01:16:29.302Z,61.70
2018-12-08T01:19:01.841Z,62.60
2018-12-08T01:21:34.442Z,62.10
2018-12-08T01:24:08.141Z,61.70
2018-12-08T01:26:41.825Z,62.40
2018-12-08T01:29:14.001Z,62.80
2018-12-08T01:31:46.642Z,63.40
2018-12-08T01:34:20.491Z,63.20
2018-12-08T01:36:53.065Z,63.80
2018-12-08T01:39:25.895Z,61.80
2018-12-08T01:41:57.985Z,62.20
2018-12-08T01:44:29.948Z,62.30
2018-12-08T01:47:02.995Z,62.80
2018-12-08T01:49:34.895Z,62.90
2018-12-08T01:52:08.235Z,62.60
2018-12-08T01:54:40.864Z,62.00
2018-12-08T01:57:14.204Z,62.90
2018-12-08T01:59:46.914Z,63.30
2018-12-08T02:02:19.914Z,62.50
2018-12-08T02:04:53.205Z,63.40
2018-12-08T02:07:26.455Z,62.80
2018-12-08T02:09:57.875Z,61.70
2018-12-08T02:12:30.904Z,62.70
2018-12-08T02:15:03.494Z,63.00
2018-12-08T02:17:36.375Z,62.60
2018-12-08T02:20:09.734Z,63.30
2018-12-08T02:22:43.044Z,64.00
2018-12-08T02:25:15.634Z,63.20
2018-12-08T02:27:48.203Z,65.00
2018-12-08T02:30:21.215Z,66.00
2018-12-08T02:32:54.435Z,65.80
2018-12-08T02:35:28.116Z,65.30
2018-12-08T02:38:01.194Z,63.00
2018-12-08T02:40:33.957Z,64.00
2018-12-08T02:43:07.148Z,64.40
2018-12-08T02:45:40.413Z,64.80
2018-12-08T02:48:13.573Z,64.80
2018-12-08T02:50:45.553Z,64.30
2018-12-08T02:53:18.653Z,64.80
2018-12-08T02:55:51.793Z,65.90
2018-12-08T02:58:25.083Z,64.30
2018-12-08T03:00:58.366Z,64.40
2018-12-08T03:03:31.334Z,64.70
2018-12-08T03:06:03.541Z,64.60
2018-12-08T03:08:36.321Z,62.70
2018-12-08T03:11:09.219Z,62.30
2018-12-08T03:13:42.781Z,62.60
2018-12-08T03:16:14.733Z,62.00
2018-12-08T03:18:47.312Z,61.60
2018-12-08T03:21:19.532Z,61.90
2018-12-08T03:23:52.452Z,63.60
2018-12-08T03:26:23.732Z,63.00
2018-12-08T03:28:57.062Z,63.20
2018-12-08T03:31:28.522Z,63.10
2018-12-08T03:34:01.442Z,62.20
2018-12-08T03:36:34.532Z,62.30
2018-12-08T03:39:09.179Z,62.30
2018-12-08T03:41:42.092Z,62.80
2018-12-08T03:44:15.402Z,63.20
2018-12-08T03:46:47.363Z,62.60
2018-12-08T03:49:20.191Z,63.00
2018-12-08T03:51:53.031Z,62.40
2018-12-08T03:54:25.461Z,61.90
2018-12-08T03:56:57.711Z,62.30
2018-12-08T03:59:30.782Z,62.30
2018-12-08T04:02:03.672Z,62.00
2018-12-08T04:04:35.793Z,62.20
2018-12-08T04:07:08.291Z,61.50
2018-12-08T04:09:41.151Z,61.30
2018-12-08T04:12:13.532Z,60.00
2018-12-08T04:14:46.275Z,59.90
2018-12-08T04:17:19.047Z,58.90
2018-12-08T04:19:51.731Z,58.80
2018-12-08T04:22:23.811Z,59.10
2018-12-08T04:24:57.073Z,59.30
2018-12-08T04:27:32.520Z,59.40
2018-12-08T04:30:05.272Z,59.00
2018-12-08T04:32:39.210Z,58.30
2018-12-08T04:35:11.281Z,58.90
2018-12-08T04:37:44.516Z,58.60
2018-12-08T04:40:16.721Z,58.30
2018-12-08T04:42:50.203Z,58.20
2018-12-08T04:45:22.742Z,57.90
2018-12-08T04:47:55.550Z,58.60
2018-12-08T04:50:27.231Z,58.00
2018-12-08T04:53:00.010Z,58.20
2018-12-08T04:55:32.050Z,58.60
2018-12-08T04:58:04.670Z,58.50
2018-12-08T05:00:37.301Z,58.20
2018-12-08T05:03:09.679Z,58.00
2018-12-08T05:05:42.300Z,58.20
2018-12-08T05:08:15.410Z,58.00
2018-12-08T05:10:46.830Z,57.80
2018-12-08T05:13:19.210Z,57.70
2018-12-08T05:15:51.300Z,58.30
2018-12-08T05:18:24.520Z,58.50
2018-12-08T05:20:57.560Z,58.70
2018-12-08T05:23:31.692Z,58.70
2018-12-08T05:26:04.630Z,58.40
2018-12-08T05:28:37.700Z,58.40
2018-12-08T05:31:10.251Z,58.10
2018-12-08T05:33:43.481Z,59.00
2018-12-08T05:36:16.421Z,59.30
2018-12-08T05:38:49.841Z,59.10
2018-12-08T05:41:22.241Z,58.80
2018-12-08T05:43:55.231Z,58.30
2018-12-08T05:46:28.051Z,58.30
2018-12-08T05:49:01.421Z,58.40
2018-12-08T05:51:34.902Z,58.10
2018-12-08T05:54:08.107Z,57.80
2018-12-08T05:56:40.242Z,58.10
2018-12-08T05:59:12.511Z,57.60
2018-12-08T06:01:45.311Z,57.50
2018-12-08T06:04:17.531Z,57.30
2018-12-08T06:06:50.102Z,57.70
2018-12-08T06:09:22.972Z,57.40
2018-12-08T06:11:56.512Z,57.50
2018-12-08T06:14:30.152Z,57.70
2018-12-08T06:17:01.702Z,57.90
2018-12-08T06:19:35.113Z,57.50
2018-12-08T06:22:07.501Z,57.40
2018-12-08T06:24:40.554Z,57.70
2018-12-08T06:27:18.672Z,57.60
2018-12-08T06:29:51.171Z,57.90
2018-12-08T06:32:23.672Z,57.10
2018-12-08T06:34:56.611Z,56.50
2018-12-08T06:37:29.451Z,56.60
2018-12-08T06:40:01.772Z,57.00
2018-12-08T06:42:33.742Z,56.60
2018-12-08T06:45:06.662Z,56.40
2018-12-08T06:47:38.824Z,56.00
2018-12-08T06:50:11.441Z,55.80
2018-12-08T06:52:43.793Z,55.90
2018-12-08T06:55:15.635Z,55.60
2018-12-08T06:57:49.122Z,55.20
2018-12-08T07:00:21.752Z,55.00
2018-12-08T07:02:53.701Z,55.10
2018-12-08T07:05:26.632Z,54.90
2018-12-08T07:08:00.132Z,54.70
2018-12-08T07:10:33.122Z,54.80
2018-12-08T07:13:05.322Z,55.10
2018-12-08T07:15:38.001Z,54.60
2018-12-08T07:18:10.452Z,54.90
2018-12-08T07:20:41.732Z,54.90
2018-12-08T07:23:13.792Z,55.10
2018-12-08T07:25:46.492Z,54.20
2018-12-08T07:28:18.172Z,54.20
2018-12-08T07:30:50.911Z,54.70
2018-12-08T07:33:22.964Z,54.20
2018-12-08T07:35:55.422Z,54.10
2018-12-08T07:38:28.081Z,54.00
2018-12-08T07:41:01.186Z,53.90
2018-12-08T07:43:34.241Z,53.80
2018-12-08T07:46:07.063Z,53.50
2018-12-08T07:48:40.211Z,53.50
2018-12-08T07:51:12.312Z,53.80
2018-12-08T07:53:44.752Z,53.80
2018-12-08T07:56:17.682Z,53.70
2018-12-08T07:58:51.413Z,53.20
2018-12-08T08:01:23.011Z,53.00
2018-12-08T08:03:55.891Z,53.50
2018-12-08T08:06:28.642Z,53.70
2018-12-08T08:09:01.721Z,53.80
2018-12-08T08:11:34.044Z,53.50
2018-12-08T08:14:06.972Z,53.80
2018-12-08T08:16:40.331Z,53.70
2018-12-08T08:19:12.551Z,52.90
2018-12-08T08:21:44.951Z,52.50
2018-12-08T08:24:18.534Z,52.40
2018-12-08T08:26:50.641Z,52.40
2018-12-08T08:29:23.691Z,52.40
2018-12-08T08:31:56.452Z,52.30
2018-12-08T08:34:29.152Z,52.30
2018-12-08T08:37:00.921Z,52.10
2018-12-08T08:39:33.791Z,52.30
2018-12-08T08:42:05.631Z,52.20
2018-12-08T08:44:38.632Z,51.80
2018-12-08T08:47:10.501Z,51.80
2018-12-08T08:49:42.861Z,51.30
2018-12-08T08:52:15.521Z,51.40
2018-12-08T08:54:48.521Z,51.90
2018-12-08T08:57:20.661Z,50.90
2018-12-08T08:59:53.611Z,51.30
2018-12-08T09:02:26.731Z,51.60
2018-12-08T09:04:59.681Z,51.10
2018-12-08T09:07:32.442Z,51.10
2018-12-08T09:10:05.697Z,51.30
2018-12-08T09:12:39.060Z,51.40
2018-12-08T09:15:12.391Z,51.30
2018-12-08T09:17:45.851Z,51.60
2018-12-08T09:20:18.795Z,51.50
2018-12-08T09:22:52.522Z,51.40
2018-12-08T09:25:25.040Z,51.10
2018-12-08T09:27:58.131Z,51.20
2018-12-08T09:30:30.332Z,51.00
2018-12-08T09:33:03.032Z,50.90
2018-12-08T09:35:35.976Z,51.40
2018-12-08T09:38:07.780Z,50.50
2018-12-08T09:40:40.501Z,50.40
2018-12-08T09:43:12.701Z,50.40
2018-12-08T09:45:45.285Z,50.10
2018-12-08T09:48:18.282Z,51.30
2018-12-08T09:50:49.983Z,50.80
2018-12-08T09:53:23.082Z,50.20
2018-12-08T09:55:56.402Z,50.10
2018-12-08T09:58:28.812Z,50.10
2018-12-08T10:01:01.184Z,50.30
2018-12-08T10:03:34.062Z,50.00
2018-12-08T10:06:06.001Z,50.20
2018-12-08T10:08:37.701Z,50.00
2018-12-08T10:11:11.513Z,49.90
2018-12-08T10:13:43.182Z,50.00
2018-12-08T10:16:16.202Z,49.70
2018-12-08T10:18:48.421Z,49.40
2018-12-08T10:21:20.802Z,49.80
2018-12-08T10:23:53.495Z,49.50
2018-12-08T10:26:26.861Z,49.60
2018-12-08T10:28:58.742Z,49.50
2018-12-08T10:31:31.902Z,49.00
2018-12-08T10:34:04.795Z,49.30
2018-12-08T10:36:36.892Z,49.10
2018-12-08T10:39:10.427Z,48.50
2018-12-08T10:41:42.822Z,48.20
2018-12-08T10:44:14.932Z,49.50
2018-12-08T10:46:47.063Z,48.80
2018-12-08T10:49:19.785Z,48.80
2018-12-08T10:51:52.672Z,49.00
2018-12-08T10:54:25.002Z,49.00
2018-12-08T10:56:57.872Z,48.90
2018-12-08T10:59:29.941Z,48.50
2018-12-08T11:02:03.972Z,48.60
2018-12-08T11:04:36.883Z,48.00
2018-12-08T11:07:10.602Z,48.20
2018-12-08T11:09:44.699Z,48.70
2018-12-08T11:12:18.104Z,48.80
2018-12-08T11:14:50.291Z,49.10
2018-12-08T11:17:22.501Z,48.50
2018-12-08T11:19:56.291Z,48.80
2018-12-08T11:22:28.452Z,49.00
2018-12-08T11:25:00.356Z,48.70
2018-12-08T11:27:33.028Z,49.10
2018-12-08T11:30:05.536Z,49.20
2018-12-08T11:32:37.651Z,49.10
2018-12-08T11:35:10.362Z,48.70
2018-12-08T11:37:42.322Z,48.60
2018-12-08T11:40:14.940Z,48.50
2018-12-08T11:42:49.081Z,48.80
2018-12-08T11:45:22.421Z,48.60
2018-12-08T11:47:55.409Z,47.80
2018-12-08T11:50:28.132Z,47.80
2018-12-08T11:53:01.331Z,47.70
2018-12-08T11:55:33.844Z,47.80
2018-12-08T11:58:05.832Z,47.90
2018-12-08T12:00:39.003Z,47.20
2018-12-08T12:03:12.352Z,47.00
2018-12-08T12:05:45.233Z,47.00
2018-12-08T12:08:17.801Z,47.20
2018-12-08T12:10:50.431Z,47.10
2018-12-08T12:13:24.710Z,47.10
2018-12-08T12:15:57.739Z,46.90
2018-12-08T12:18:30.410Z,47.20
2018-12-08T12:21:03.811Z,47.50
2018-12-08T12:23:35.492Z,47.10
2018-12-08T12:26:08.461Z,47.10
2018-12-08T12:28:41.142Z,47.30
2018-12-08T12:31:13.603Z,47.20
2018-12-08T12:33:45.922Z,47.10
2018-12-08T12:36:18.593Z,46.80
2018-12-08T12:38:50.674Z,47.00
2018-12-08T12:41:24.031Z,47.30
2018-12-08T12:43:56.957Z,47.70
2018-12-08T12:46:30.201Z,47.80
2018-12-08T12:49:02.541Z,47.70
2018-12-08T12:51:34.681Z,47.80
2018-12-08T12:54:07.871Z,47.60
2018-12-08T12:56:40.220Z,47.50
2018-12-08T12:59:12.671Z,47.50
2018-12-08T13:01:46.580Z,47.50
2018-12-08T13:04:19.500Z,48.40
2018-12-08T13:06:53.090Z,48.20
2018-12-08T13:09:25.222Z,48.30
2018-12-08T13:11:58.341Z,48.50
2018-12-08T13:14:31.313Z,48.40
2018-12-08T13:17:04.680Z,48.70
2018-12-08T13:19:36.621Z,48.90
2018-12-08T13:22:10.511Z,48.60
2018-12-08T13:24:43.340Z,48.90
2018-12-08T13:27:16.431Z,49.00
2018-12-08T13:29:48.621Z,48.60
2018-12-08T13:32:21.700Z,48.80
2018-12-08T13:34:54.391Z,49.20
2018-12-08T13:37:27.711Z,49.30
2018-12-08T13:40:00.381Z,49.30
2018-12-08T13:42:33.439Z,49.10
2018-12-08T13:45:36.311Z,49.30
2018-12-08T13:48:08.533Z,49.40
2018-12-08T13:50:42.041Z,49.30
2018-12-08T13:53:14.321Z,49.20
2018-12-08T13:55:47.522Z,49.40
2018-12-08T13:58:20.104Z,49.40
2018-12-08T14:00:53.821Z,49.80
2018-12-08T14:03:26.911Z,49.60
2018-12-08T14:05:59.691Z,49.40
2018-12-08T14:08:32.447Z,49.70
2018-12-08T14:11:06.080Z,49.70
2018-12-08T14:13:37.471Z,50.00
2018-12-08T14:16:09.800Z,50.00
2018-12-08T14:18:41.860Z,50.10
2018-12-08T14:21:14.591Z,49.90
2018-12-08T14:23:47.191Z,50.20
2018-12-08T14:26:20.333Z,50.10
2018-12-08T14:28:51.762Z,50.20
2018-12-08T14:31:25.068Z,50.30
2018-12-08T14:33:57.921Z,49.50
2018-12-08T14:36:32.013Z,49.70
2018-12-08T14:39:04.053Z,49.80
2018-12-08T14:41:36.672Z,50.00
2018-12-08T14:44:09.720Z,49.70
2018-12-08T14:46:43.113Z,50.00
2018-12-08T14:49:14.441Z,49.70
2018-12-08T14:51:47.792Z,49.80
2018-12-08T14:54:21.179Z,49.70
2018-12-08T14:56:54.833Z,49.60
2018-12-08T14:59:27.183Z,49.90
2018-12-08T15:01:59.581Z,49.90
2018-12-08T15:04:31.103Z,50.20
2018-12-08T15:07:03.902Z,50.90
2018-12-08T15:09:36.201Z,50.60
2018-12-08T15:12:08.813Z,50.40
2018-12-08T15:14:41.492Z,50.60
2018-12-08T15:17:14.182Z,50.50
2018-12-08T15:19:48.082Z,50.70
2018-12-08T15:22:21.554Z,50.80
2018-12-08T15:24:53.573Z,51.10
2018-12-08T15:27:27.791Z,51.20
2018-12-08T15:30:00.085Z,51.10
2018-12-08T15:32:33.030Z,51.00
2018-12-08T15:35:06.362Z,51.20
2018-12-08T15:37:38.361Z,51.30
2018-12-08T15:40:11.934Z,51.20
2018-12-08T15:42:44.842Z,51.00
2018-12-08T15:45:17.175Z,51.20
2018-12-08T15:47:50.552Z,51.20
2018-12-08T15:50:24.242Z,51.30
2018-12-08T15:52:56.700Z,51.40
2018-12-08T15:55:29.133Z,51.60
2018-12-08T15:58:01.843Z,51.40
2018-12-08T16:00:34.652Z,51.60
2018-12-08T16:03:06.971Z,51.10
2018-12-08T16:05:39.072Z,51.10
2018-12-08T16:08:11.642Z,51.40
2018-12-08T16:10:44.142Z,51.20
2018-12-08T16:13:18.127Z,51.10
2018-12-08T16:15:51.152Z,51.00
2018-12-08T16:18:24.553Z,50.80
2018-12-08T16:20:57.101Z,51.00
2018-12-08T16:23:29.072Z,50.90
2018-12-08T16:26:00.423Z,51.00
2018-12-08T16:28:33.282Z,51.10
2018-12-08T16:31:06.473Z,51.10
2018-12-08T16:33:39.421Z,51.20
2018-12-08T16:36:11.562Z,51.30
2018-12-08T16:38:44.646Z,51.40
2018-12-08T16:41:17.642Z,51.30
2018-12-08T16:43:51.333Z,51.20
2018-12-08T16:46:24.023Z,51.50
2018-12-08T16:48:56.802Z,51.70
2018-12-08T16:51:29.992Z,51.30
2018-12-08T16:54:02.792Z,51.30
2018-12-08T16:56:35.662Z,51.30
2018-12-08T16:59:07.642Z,51.40
2018-12-08T17:01:40.932Z,51.50
2018-12-08T17:04:14.251Z,51.50
2018-12-08T17:06:47.842Z,51.60
2018-12-08T17:09:20.792Z,51.60
2018-12-08T17:11:53.772Z,51.50
2018-12-08T17:14:26.403Z,51.60
2018-12-08T17:16:59.962Z,51.80
2018-12-08T17:19:32.352Z,51.50
2018-12-08T17:22:04.732Z,51.60
2018-12-08T17:24:36.921Z,51.60
2018-12-08T17:27:10.211Z,51.30
2018-12-08T17:29:43.081Z,51.80
2018-12-08T17:32:15.362Z,51.50
2018-12-08T17:34:48.212Z,51.40
2018-12-08T17:37:21.068Z,51.40
2018-12-08T17:39:51.874Z,51.30
2018-12-08T17:42:24.782Z,50.90
2018-12-08T17:44:56.412Z,51.00
2018-12-08T17:47:29.572Z,51.20
2018-12-08T17:50:01.883Z,51.30
2018-12-08T17:52:34.225Z,51.00
2018-12-08T17:55:07.582Z,50.70
2018-12-08T17:57:39.989Z,50.80
2018-12-08T18:00:12.902Z,50.90
2018-12-08T18:02:46.353Z,50.90
2018-12-08T18:05:18.942Z,50.70
2018-12-08T18:07:51.553Z,50.50
2018-12-08T18:10:24.153Z,50.70
2018-12-08T18:12:57.291Z,50.90
2018-12-08T18:15:30.452Z,50.80
2018-12-08T18:18:04.355Z,50.70
2018-12-08T18:20:36.023Z,50.80
2018-12-08T18:23:08.952Z,50.90
2018-12-08T18:25:41.732Z,50.90
2018-12-08T18:28:14.692Z,51.00
2018-12-08T18:30:47.463Z,50.90
2018-12-08T18:33:20.602Z,50.80
2018-12-08T18:35:53.614Z,50.40
2018-12-08T18:38:26.503Z,51.20
2018-12-08T18:40:58.593Z,50.60
2018-12-08T18:43:31.472Z,50.50
2018-12-08T18:46:04.372Z,50.40
2018-12-08T18:48:36.831Z,50.30
2018-12-08T18:51:09.057Z,50.50
2018-12-08T18:53:42.064Z,50.90
2018-12-08T18:56:14.551Z,50.20
2018-12-08T18:58:47.292Z,49.80
2018-12-08T19:01:19.878Z,49.60
2018-12-08T19:03:52.572Z,49.70
2018-12-08T19:06:23.832Z,49.30
2018-12-08T19:08:56.822Z,49.50
2018-12-08T19:11:28.693Z,50.00
2018-12-08T19:14:01.972Z,49.60
2018-12-08T19:16:34.392Z,49.50
2018-12-08T19:19:06.421Z,49.70
2018-12-08T19:21:38.891Z,49.90
2018-12-08T19:24:12.342Z,49.60
2018-12-08T19:26:44.192Z,49.60
2018-12-08T19:29:17.242Z,49.60
2018-12-08T19:31:50.382Z,49.70
2018-12-08T19:34:24.141Z,49.60
2018-12-08T19:36:56.141Z,50.00
2018-12-08T19:39:29.402Z,50.20
2018-12-08T19:42:02.683Z,50.70
2018-12-08T19:44:34.454Z,50.40
2018-12-08T19:47:07.447Z,50.00
2018-12-08T19:49:40.462Z,49.90
2018-12-08T19:52:12.563Z,49.70
2018-12-08T19:54:45.472Z,49.90
2018-12-08T19:57:17.921Z,50.20
2018-12-08T19:59:50.432Z,50.50
2018-12-08T20:02:22.741Z,50.80
2018-12-08T20:04:55.451Z,51.30
2018-12-08T20:07:28.882Z,51.80
2018-12-08T20:10:01.561Z,51.70
2018-12-08T20:12:34.792Z,51.70
2018-12-08T20:15:08.542Z,51.90
2018-12-08T20:17:41.151Z,51.90
2018-12-08T20:20:13.691Z,51.90
2018-12-08T20:22:46.272Z,52.10
2018-12-08T20:25:18.855Z,52.30
2018-12-08T20:27:51.322Z,52.00
2018-12-08T20:30:23.362Z,51.90
2018-12-08T20:32:57.052Z,51.90
2018-12-08T20:35:30.791Z,52.60
2018-12-08T20:38:03.924Z,53.00
2018-12-08T20:40:35.491Z,53.70
2018-12-08T20:43:08.691Z,54.20
2018-12-08T20:45:41.292Z,54.90
2018-12-08T20:48:13.902Z,54.30
2018-12-08T20:50:45.634Z,54.20
2018-12-08T20:53:17.792Z,54.30
2018-12-08T20:55:49.982Z,54.50
2018-12-08T20:58:23.032Z,53.90
2018-12-08T21:00:55.442Z,54.00
2018-12-08T21:03:27.793Z,54.10
2018-12-08T21:06:01.601Z,54.40
2018-12-08T21:08:35.612Z,54.50
2018-12-08T21:11:08.562Z,54.30
2018-12-08T21:13:41.151Z,54.20
2018-12-08T21:16:14.753Z,54.10
2018-12-08T21:18:48.162Z,54.40
2018-12-08T21:21:21.052Z,54.60
2018-12-08T21:23:53.562Z,55.20
2018-12-08T21:26:26.292Z,55.50
2018-12-08T21:28:59.231Z,55.70
2018-12-08T21:31:31.894Z,56.40
2018-12-08T21:34:04.450Z,56.90
2018-12-08T21:36:36.152Z,57.60
2018-12-08T21:39:10.681Z,57.80
2018-12-08T21:41:43.581Z,58.10
2018-12-08T21:44:16.942Z,58.00
2018-12-08T21:46:49.381Z,58.10
2018-12-08T21:49:21.832Z,57.60
2018-12-08T21:51:55.343Z,57.80
2018-12-08T21:54:28.022Z,57.60
2018-12-08T21:56:59.821Z,57.70
2018-12-08T21:59:32.138Z,57.50
2018-12-08T22:02:04.511Z,57.60
2018-12-08T22:04:36.910Z,57.50
2018-12-08T22:07:09.622Z,57.70
2018-12-08T22:09:42.081Z,58.10
2018-12-08T22:12:14.550Z,57.70
2018-12-08T22:14:51.551Z,58.20
2018-12-08T22:17:24.595Z,58.50
2018-12-08T22:19:55.572Z,58.20
2018-12-08T22:22:28.421Z,58.30
2018-12-08T22:25:01.110Z,58.70
2018-12-08T22:27:33.694Z,58.80
2018-12-08T22:30:07.891Z,59.30
2018-12-08T22:32:39.742Z,59.50
2018-12-08T22:35:11.961Z,59.20
2018-12-08T22:37:45.281Z,59.40
2018-12-08T22:40:18.111Z,59.30
2018-12-08T22:42:50.551Z,59.80
2018-12-08T22:45:23.250Z,59.90
2018-12-08T22:47:55.941Z,59.80
2018-12-08T22:50:28.541Z,59.70
2018-12-08T22:53:00.662Z,60.90
2018-12-08T22:55:33.174Z,62.00
2018-12-08T22:58:04.891Z,62.70
2018-12-08T23:00:44.241Z,62.90
2018-12-08T23:03:16.031Z,62.50
2018-12-08T23:05:49.240Z,63.20
2018-12-08T23:08:22.267Z,63.20
2018-12-08T23:10:54.549Z,63.50
2018-12-08T23:13:27.891Z,63.90
2018-12-08T23:16:00.701Z,63.60
2018-12-08T23:18:33.551Z,64.20
2018-12-08T23:21:05.901Z,64.60
2018-12-08T23:23:38.462Z,64.20
2018-12-08T23:26:11.701Z,63.10
2018-12-08T23:28:44.850Z,63.10
2018-12-08T23:31:17.201Z,64.00
2018-12-08T23:33:49.670Z,63.90
2018-12-08T23:36:22.479Z,63.30
2018-12-08T23:38:56.169Z,63.70
2018-12-08T23:41:28.089Z,63.40
2018-12-08T23:44:00.771Z,63.60
2018-12-08T23:46:33.410Z,63.10
2018-12-08T23:49:11.195Z,63.60
2018-12-08T23:51:40.421Z,63.40
2018-12-08T23:54:13.270Z,63.70
2018-12-08T23:56:45.831Z,63.50
2018-12-08T23:59:19.269Z,63.20
